createdAt,value
2017-07-26T00:00:26.510Z,3.40
2017-07-26T00:02:53.450Z,3.30
2017-07-26T00:05:20.396Z,3.40
2017-07-26T00:07:47.341Z,3.40
2017-07-26T00:10:14.273Z,3.57
2017-07-26T00:12:41.191Z,3.37
2017-07-26T00:15:08.065Z,3.23
2017-07-26T00:17:34.970Z,3.40
2017-07-26T00:20:01.854Z,3.80
2017-07-26T00:22:28.768Z,4.00
2017-07-26T00:24:55.649Z,3.40
2017-07-26T00:27:22.608Z,3.90
2017-07-26T00:29:49.562Z,3.93
2017-07-26T00:32:16.914Z,3.90
2017-07-26T00:34:43.861Z,4.00
2017-07-26T00:37:11.214Z,3.80
2017-07-26T00:39:38.157Z,3.77
2017-07-26T00:42:05.076Z,3.63
2017-07-26T00:44:32.042Z,4.10
2017-07-26T00:46:59.029Z,3.93
2017-07-26T00:49:25.941Z,4.40
2017-07-26T00:51:52.891Z,4.10
2017-07-26T00:54:19.838Z,4.97
2017-07-26T00:56:46.783Z,4.40
2017-07-26T00:59:13.662Z,4.50
2017-07-26T01:01:40.569Z,4.73
2017-07-26T01:04:07.478Z,3.80
2017-07-26T01:06:34.396Z,3.77
2017-07-26T01:09:01.410Z,4.50
2017-07-26T01:11:28.357Z,3.60
2017-07-26T01:13:55.309Z,4.03
2017-07-26T01:16:22.255Z,3.87
2017-07-26T01:18:49.200Z,4.10
2017-07-26T01:21:16.153Z,4.10
2017-07-26T01:23:43.436Z,3.50
2017-07-26T01:26:10.317Z,4.03
2017-07-26T01:28:37.241Z,4.10
2017-07-26T01:31:04.130Z,4.37
2017-07-26T01:33:31.005Z,4.93
2017-07-26T01:35:57.926Z,4.70
2017-07-26T01:38:24.805Z,5.43
2017-07-26T01:40:51.686Z,4.13
2017-07-26T01:43:18.605Z,5.20
2017-07-26T01:45:45.484Z,5.50
2017-07-26T01:48:12.394Z,5.67
2017-07-26T01:50:39.301Z,5.53
2017-07-26T01:53:06.589Z,5.97
2017-07-26T01:55:33.512Z,6.70
2017-07-26T01:58:00.793Z,6.57
2017-07-26T02:00:27.677Z,6.13
2017-07-26T02:02:54.641Z,6.10
2017-07-26T02:05:21.521Z,7.33
2017-07-26T02:07:48.538Z,5.83
2017-07-26T02:10:15.901Z,6.40
2017-07-26T02:12:43.178Z,6.50
2017-07-26T02:15:10.092Z,6.97
2017-07-26T02:17:37.374Z,7.53
2017-07-26T02:20:04.392Z,7.63
2017-07-26T02:22:31.341Z,7.27
2017-07-26T02:24:58.282Z,7.57
2017-07-26T02:27:25.237Z,7.90
2017-07-26T02:29:52.610Z,8.00
2017-07-26T02:32:20.050Z,8.30
2017-07-26T02:34:47.005Z,8.03
2017-07-26T02:37:14.290Z,8.30
2017-07-26T02:39:41.298Z,8.33
2017-07-26T02:42:08.578Z,8.27
2017-07-26T02:44:35.601Z,8.17
2017-07-26T02:47:02.953Z,8.70
2017-07-26T02:49:29.897Z,8.20
2017-07-26T02:51:56.849Z,8.47
2017-07-26T02:54:24.201Z,8.60
2017-07-26T02:56:51.117Z,9.37
2017-07-26T02:59:18.088Z,9.20
2017-07-26T03:01:45.050Z,8.80
2017-07-26T03:04:12.498Z,9.27
2017-07-26T03:06:39.413Z,8.90
2017-07-26T03:09:06.297Z,9.00
2017-07-26T03:11:33.641Z,9.60
2017-07-26T03:14:00.537Z,10.13
2017-07-26T03:16:27.436Z,9.73
2017-07-26T03:18:54.515Z,10.50
2017-07-26T03:21:21.406Z,10.20
2017-07-26T03:23:48.307Z,10.37
2017-07-26T03:26:15.316Z,10.47
2017-07-26T03:28:42.218Z,11.20
2017-07-26T03:31:09.103Z,11.33
2017-07-26T03:33:36.066Z,10.83
2017-07-26T03:36:03.423Z,11.97
2017-07-26T03:38:30.710Z,11.63
2017-07-26T03:40:57.622Z,11.50
2017-07-26T03:43:24.534Z,11.30
2017-07-26T03:45:51.514Z,12.60
2017-07-26T03:48:18.970Z,12.73
2017-07-26T03:50:46.251Z,13.63
2017-07-26T03:53:13.273Z,13.30
2017-07-26T03:55:40.165Z,13.80
2017-07-26T03:58:07.070Z,14.00
2017-07-26T04:00:34.424Z,13.80
2017-07-26T04:03:01.705Z,14.57
2017-07-26T04:05:28.623Z,13.83
2017-07-26T04:07:55.974Z,15.60
2017-07-26T04:10:22.913Z,16.00
2017-07-26T04:12:49.850Z,15.40
2017-07-26T04:15:16.811Z,14.57
2017-07-26T04:17:43.762Z,14.67
2017-07-26T04:20:10.641Z,15.40
2017-07-26T04:22:37.553Z,16.00
2017-07-26T04:25:04.902Z,15.77
2017-07-26T04:27:32.303Z,15.13
2017-07-26T04:29:59.189Z,15.90
2017-07-26T04:32:26.088Z,14.97
2017-07-26T04:34:53.026Z,16.43
2017-07-26T04:37:19.953Z,16.77
2017-07-26T04:39:47.601Z,15.80
2017-07-26T04:42:14.491Z,17.07
2017-07-26T04:44:41.392Z,16.13
2017-07-26T04:47:08.867Z,17.67
2017-07-26T04:49:35.793Z,16.37
2017-07-26T04:52:02.764Z,17.60
2017-07-26T04:54:30.106Z,16.53
2017-07-26T04:56:57.393Z,17.00
2017-07-26T04:59:24.611Z,16.40
2017-07-26T05:01:51.561Z,17.07
2017-07-26T05:04:18.845Z,17.30
2017-07-26T05:06:45.754Z,16.40
2017-07-26T05:09:12.647Z,18.70
2017-07-26T05:11:39.617Z,18.87
2017-07-26T05:14:06.599Z,15.93
2017-07-26T05:16:33.965Z,17.13
2017-07-26T05:19:01.249Z,17.40
2017-07-26T05:21:28.161Z,17.60
2017-07-26T05:23:55.509Z,17.13
2017-07-26T05:26:22.831Z,16.63
2017-07-26T05:28:49.809Z,16.60
2017-07-26T05:31:17.156Z,17.03
2017-07-26T05:33:44.045Z,17.73
2017-07-26T05:36:12.076Z,18.00
2017-07-26T05:38:39.025Z,16.03
2017-07-26T05:41:05.951Z,18.30
2017-07-26T05:43:32.929Z,17.80
2017-07-26T05:46:00.221Z,17.27
2017-07-26T05:48:27.246Z,15.73
2017-07-26T05:50:54.271Z,17.47
2017-07-26T05:53:21.183Z,15.20
2017-07-26T05:55:48.167Z,15.90
2017-07-26T05:58:15.449Z,16.10
2017-07-26T06:00:42.711Z,15.90
2017-07-26T06:03:09.628Z,17.10
2017-07-26T06:05:36.969Z,16.10
2017-07-26T06:08:03.866Z,16.37
2017-07-26T06:10:30.875Z,15.63
2017-07-26T06:12:58.209Z,17.70
2017-07-26T06:15:25.093Z,17.67
2017-07-26T06:17:52.013Z,16.67
2017-07-26T06:20:19.401Z,18.37
2017-07-26T06:22:46.415Z,18.70
2017-07-26T06:25:13.688Z,16.70
2017-07-26T06:27:40.618Z,17.67
2017-07-26T06:30:07.930Z,17.37
2017-07-26T06:32:34.905Z,15.83
2017-07-26T06:35:01.861Z,12.40
2017-07-26T06:37:29.211Z,8.80
2017-07-26T06:39:56.119Z,7.57
2017-07-26T06:42:23.042Z,7.30
2017-07-26T06:44:50.013Z,6.07
2017-07-26T06:47:17.298Z,4.97
2017-07-26T06:49:44.216Z,4.90
2017-07-26T06:52:11.561Z,3.20
2017-07-26T06:54:38.441Z,3.37
2017-07-26T06:57:05.380Z,2.60
2017-07-26T06:59:32.654Z,2.53
2017-07-26T07:01:59.554Z,2.77
2017-07-26T07:04:26.944Z,3.30
2017-07-26T07:06:53.941Z,3.50
2017-07-26T07:09:20.825Z,3.60
2017-07-26T07:11:47.834Z,3.90
2017-07-26T07:14:14.790Z,4.37
2017-07-26T07:16:42.142Z,4.63
2017-07-26T07:19:09.026Z,5.10
2017-07-26T07:21:35.942Z,5.83
2017-07-26T07:24:03.291Z,7.00
2017-07-26T07:26:30.754Z,6.60
2017-07-26T07:28:58.038Z,8.10
2017-07-26T07:31:24.959Z,7.33
2017-07-26T07:33:52.484Z,12.50
2017-07-26T07:36:19.502Z,7.80
2017-07-26T07:38:46.450Z,9.20
2017-07-26T07:41:13.349Z,9.73
2017-07-26T07:43:40.292Z,9.90
2017-07-26T07:46:07.249Z,10.00
2017-07-26T07:48:34.670Z,9.73
2017-07-26T07:51:01.657Z,11.07
2017-07-26T07:53:28.949Z,10.23
2017-07-26T07:55:55.867Z,10.90
2017-07-26T07:58:23.210Z,11.70
2017-07-26T08:00:50.569Z,11.90
2017-07-26T08:03:17.880Z,11.63
2017-07-26T08:05:44.858Z,12.27
2017-07-26T08:08:11.789Z,11.40
2017-07-26T08:10:39.138Z,11.97
2017-07-26T08:13:06.094Z,11.80
2017-07-26T08:15:33.029Z,12.43
2017-07-26T08:18:00.403Z,11.53
2017-07-26T08:20:27.425Z,11.60
2017-07-26T08:22:54.381Z,11.50
2017-07-26T08:25:21.321Z,11.67
2017-07-26T08:27:48.264Z,12.20
2017-07-26T08:30:15.154Z,12.53
2017-07-26T08:32:42.139Z,12.00
2017-07-26T08:35:09.152Z,11.33
2017-07-26T08:37:36.070Z,11.83
2017-07-26T08:40:03.416Z,10.13
2017-07-26T08:42:30.811Z,11.80
2017-07-26T08:44:57.717Z,10.60
2017-07-26T08:47:25.069Z,10.50
2017-07-26T08:49:52.046Z,10.57
2017-07-26T08:52:19.062Z,9.73
2017-07-26T08:54:45.958Z,9.87
2017-07-26T08:57:12.952Z,11.53
2017-07-26T08:59:39.837Z,10.03
2017-07-26T09:02:06.752Z,10.83
2017-07-26T09:04:34.110Z,11.40
2017-07-26T09:07:01.417Z,10.50
2017-07-26T09:09:28.343Z,10.47
2017-07-26T09:11:55.253Z,11.87
2017-07-26T09:14:22.609Z,10.63
2017-07-26T09:16:49.965Z,10.63
2017-07-26T09:19:17.345Z,9.73
2017-07-26T09:21:44.265Z,10.33
2017-07-26T09:24:11.174Z,10.40
2017-07-26T09:26:38.161Z,9.83
2017-07-26T09:29:05.517Z,10.33
2017-07-26T09:31:32.873Z,10.50
2017-07-26T09:34:00.150Z,9.90
2017-07-26T09:36:27.066Z,10.20
2017-07-26T09:38:54.005Z,10.07
2017-07-26T09:41:20.986Z,9.80
2017-07-26T09:43:47.914Z,10.07
2017-07-26T09:46:15.221Z,9.47
2017-07-26T09:48:42.209Z,9.13
2017-07-26T09:51:09.126Z,9.53
2017-07-26T09:53:36.102Z,8.73
2017-07-26T09:56:03.057Z,8.50
2017-07-26T09:58:30.418Z,9.73
2017-07-26T10:00:57.402Z,8.10
2017-07-26T10:03:24.355Z,9.03
2017-07-26T10:05:51.294Z,8.77
2017-07-26T10:08:18.246Z,8.03
2017-07-26T10:10:45.701Z,8.67
2017-07-26T10:13:12.586Z,8.47
2017-07-26T10:15:39.609Z,9.10
2017-07-26T10:18:06.890Z,8.80
2017-07-26T10:20:33.801Z,8.47
2017-07-26T10:23:01.158Z,8.80
2017-07-26T10:25:28.441Z,8.77
2017-07-26T10:27:55.327Z,8.00
2017-07-26T10:30:22.297Z,9.20
2017-07-26T10:32:49.245Z,8.73
2017-07-26T10:35:16.192Z,9.60
2017-07-26T10:37:43.136Z,8.60
2017-07-26T10:40:10.498Z,7.87
2017-07-26T10:42:37.794Z,8.27
2017-07-26T10:45:04.705Z,7.50
2017-07-26T10:47:32.050Z,7.60
2017-07-26T10:49:58.953Z,6.53
2017-07-26T10:52:25.946Z,7.13
2017-07-26T10:54:52.894Z,6.60
2017-07-26T10:57:20.252Z,7.53
2017-07-26T10:59:47.605Z,7.03
2017-07-26T11:02:14.890Z,5.90
2017-07-26T11:04:41.813Z,6.60
2017-07-26T11:07:09.087Z,6.93
2017-07-26T11:09:35.976Z,7.27
2017-07-26T11:12:02.902Z,7.00
2017-07-26T11:14:29.826Z,7.53
2017-07-26T11:16:56.701Z,7.30
2017-07-26T11:19:23.591Z,6.13
2017-07-26T11:21:50.505Z,6.17
2017-07-26T11:24:17.455Z,6.00
2017-07-26T11:26:44.350Z,6.17
2017-07-26T11:29:11.257Z,6.00
2017-07-26T11:31:38.602Z,6.00
2017-07-26T11:34:05.546Z,6.90
2017-07-26T11:36:32.461Z,6.07
2017-07-26T11:38:59.350Z,5.50
2017-07-26T11:41:26.626Z,4.93
2017-07-26T11:43:53.554Z,4.97
2017-07-26T11:46:20.937Z,4.57
2017-07-26T11:48:47.838Z,4.50
2017-07-26T11:51:14.782Z,4.40
2017-07-26T11:53:41.671Z,4.57
2017-07-26T11:56:08.573Z,4.17
2017-07-26T11:58:35.516Z,4.00
2017-07-26T12:01:02.427Z,4.20
2017-07-26T12:03:29.331Z,4.20
2017-07-26T12:05:56.714Z,4.20
2017-07-26T12:08:23.713Z,4.67
2017-07-26T12:10:50.762Z,4.13
2017-07-26T12:13:17.710Z,3.60
2017-07-26T12:15:44.639Z,3.47
2017-07-26T12:18:11.538Z,3.87
2017-07-26T12:20:38.452Z,4.18
2017-07-26T12:23:05.393Z,3.73
2017-07-26T12:25:32.344Z,3.70
2017-07-26T12:27:59.346Z,3.30
2017-07-26T12:30:26.294Z,4.30
2017-07-26T12:32:53.223Z,3.60
2017-07-26T12:35:20.225Z,3.70
2017-07-26T12:37:47.135Z,4.00
2017-07-26T12:40:14.121Z,4.13
2017-07-26T12:42:41.084Z,4.20
2017-07-26T12:45:08.007Z,5.07
2017-07-26T12:47:34.945Z,4.47
2017-07-26T12:50:01.830Z,5.00
2017-07-26T12:52:28.761Z,5.27
2017-07-26T12:54:56.106Z,6.10
2017-07-26T12:57:23.049Z,6.10
2017-07-26T12:59:49.977Z,6.87
2017-07-26T13:02:16.950Z,6.93
2017-07-26T13:04:43.893Z,7.70
2017-07-26T13:07:10.805Z,7.00
2017-07-26T13:09:37.786Z,7.20
2017-07-26T13:12:05.096Z,6.70
2017-07-26T13:14:31.997Z,6.20
2017-07-26T13:16:59.306Z,6.70
2017-07-26T13:19:26.213Z,6.43
2017-07-26T13:21:53.125Z,7.17
2017-07-26T13:24:20.188Z,6.57
2017-07-26T13:26:47.533Z,7.60
2017-07-26T13:29:14.442Z,7.23
2017-07-26T13:31:41.343Z,6.77
2017-07-26T13:34:08.674Z,5.90
2017-07-26T13:36:35.629Z,6.97
2017-07-26T13:39:02.520Z,5.97
2017-07-26T13:41:29.519Z,6.30
2017-07-26T13:43:56.511Z,6.20
2017-07-26T13:46:23.405Z,6.20
2017-07-26T13:48:50.378Z,5.70
2017-07-26T13:51:17.714Z,5.87
2017-07-26T13:53:44.665Z,7.20
2017-07-26T13:56:12.025Z,6.60
2017-07-26T13:58:39.297Z,6.57
2017-07-26T14:01:06.209Z,7.57
2017-07-26T14:03:33.162Z,6.87
2017-07-26T14:06:00.046Z,8.40
2017-07-26T14:08:27.049Z,8.00
2017-07-26T14:10:54.001Z,6.73
2017-07-26T14:13:20.918Z,7.37
2017-07-26T14:15:47.796Z,6.70
2017-07-26T14:18:15.097Z,7.07
2017-07-26T14:20:42.034Z,6.97
2017-07-26T14:23:08.921Z,7.37
2017-07-26T14:25:35.888Z,7.37
2017-07-26T14:28:03.750Z,8.40
2017-07-26T14:30:30.700Z,7.10
2017-07-26T14:32:58.606Z,7.23
2017-07-26T14:35:25.517Z,6.83
2017-07-26T14:37:52.474Z,7.40
2017-07-26T14:40:19.813Z,6.63
2017-07-26T14:42:46.722Z,6.90
2017-07-26T14:45:13.711Z,7.13
2017-07-26T14:47:40.672Z,7.60
2017-07-26T14:50:08.057Z,8.10
2017-07-26T14:52:34.957Z,7.70
2017-07-26T14:55:01.949Z,7.23
2017-07-26T14:57:28.833Z,7.17
2017-07-26T14:59:55.795Z,5.17
2017-07-26T15:02:22.746Z,4.47
2017-07-26T15:04:49.689Z,4.33
2017-07-26T15:07:16.638Z,4.70
2017-07-26T15:09:43.592Z,4.67
2017-07-26T15:12:10.945Z,4.27
2017-07-26T15:14:38.189Z,4.40
2017-07-26T15:17:05.166Z,4.87
2017-07-26T15:19:32.050Z,4.43
2017-07-26T15:21:58.937Z,4.67
2017-07-26T15:24:26.300Z,4.60
2017-07-26T15:26:53.614Z,5.40
2017-07-26T15:29:20.590Z,4.20
2017-07-26T15:31:47.470Z,4.33
2017-07-26T15:34:14.349Z,4.73
2017-07-26T15:36:41.322Z,4.63
2017-07-26T15:39:08.273Z,4.30
2017-07-26T15:41:35.216Z,4.67
2017-07-26T15:44:02.266Z,5.20
2017-07-26T15:46:29.221Z,5.60
2017-07-26T15:48:56.529Z,5.63
2017-07-26T15:51:23.410Z,5.70
2017-07-26T15:53:50.342Z,5.60
2017-07-26T15:56:17.226Z,5.00
2017-07-26T15:58:44.574Z,4.53
2017-07-26T16:01:11.985Z,5.20
2017-07-26T16:03:38.873Z,5.00
2017-07-26T16:06:06.228Z,4.67
2017-07-26T16:08:33.529Z,4.43
2017-07-26T16:11:00.469Z,5.20
2017-07-26T16:13:27.352Z,4.90
2017-07-26T16:15:54.352Z,4.20
2017-07-26T16:18:21.253Z,4.17
2017-07-26T16:20:48.141Z,5.27
2017-07-26T16:23:15.050Z,4.70
2017-07-26T16:25:42.450Z,4.57
2017-07-26T16:28:09.372Z,4.67
2017-07-26T16:30:36.254Z,4.23
2017-07-26T16:33:03.145Z,4.07
2017-07-26T16:35:30.498Z,4.17
2017-07-26T16:37:57.401Z,4.27
2017-07-26T16:40:24.389Z,3.70
2017-07-26T16:42:51.329Z,4.17
2017-07-26T16:45:18.284Z,3.40
2017-07-26T16:47:45.565Z,3.83
2017-07-26T16:50:12.586Z,3.97
2017-07-26T16:52:39.528Z,3.73
2017-07-26T16:55:06.473Z,3.83
2017-07-26T16:57:33.361Z,3.67
2017-07-26T17:00:00.361Z,3.57
2017-07-26T17:02:27.250Z,3.77
2017-07-26T17:04:54.161Z,3.70
2017-07-26T17:07:21.451Z,3.60
2017-07-26T17:09:48.613Z,3.83
2017-07-26T17:12:15.529Z,3.80
2017-07-26T17:14:42.830Z,3.53
2017-07-26T17:17:09.718Z,3.40
2017-07-26T17:19:37.025Z,3.67
2017-07-26T17:22:04.004Z,3.10
2017-07-26T17:24:31.369Z,3.33
2017-07-26T17:26:58.717Z,3.50
2017-07-26T17:29:25.713Z,3.03
2017-07-26T17:31:52.712Z,3.10
2017-07-26T17:34:19.711Z,3.37
2017-07-26T17:36:46.614Z,3.83
2017-07-26T17:39:13.965Z,3.53
2017-07-26T17:41:40.909Z,3.60
2017-07-26T17:44:07.790Z,3.80
2017-07-26T17:46:34.705Z,3.63
2017-07-26T17:49:02.630Z,3.77
2017-07-26T17:51:29.522Z,4.10
2017-07-26T17:53:56.869Z,4.03
2017-07-26T17:56:23.753Z,3.50
2017-07-26T17:58:50.645Z,3.73
2017-07-26T18:01:17.557Z,4.33
2017-07-26T18:03:44.549Z,3.77
2017-07-26T18:06:11.505Z,3.80
2017-07-26T18:08:38.408Z,4.10
2017-07-26T18:11:05.801Z,4.30
2017-07-26T18:13:32.714Z,3.90
2017-07-26T18:15:59.704Z,4.50
2017-07-26T18:18:26.986Z,4.37
2017-07-26T18:20:53.940Z,5.27
2017-07-26T18:23:20.849Z,4.90
2017-07-26T18:25:48.205Z,4.37
2017-07-26T18:28:15.109Z,4.63
2017-07-26T18:30:42.161Z,5.80
2017-07-26T18:33:09.376Z,8.13
2017-07-26T18:35:36.290Z,5.73
2017-07-26T18:38:03.178Z,6.20
2017-07-26T18:40:30.181Z,5.50
2017-07-26T18:42:57.071Z,5.83
2017-07-26T18:45:24.069Z,5.97
2017-07-26T18:47:51.021Z,4.97
2017-07-26T18:50:17.910Z,5.07
2017-07-26T18:52:44.813Z,5.07
2017-07-26T18:55:11.746Z,6.00
2017-07-26T18:57:38.709Z,6.20
2017-07-26T19:00:05.590Z,5.47
2017-07-26T19:02:32.594Z,5.40
2017-07-26T19:04:59.522Z,5.03
2017-07-26T19:07:26.492Z,4.87
2017-07-26T19:09:53.845Z,5.43
2017-07-26T19:12:20.799Z,4.90
2017-07-26T19:14:47.748Z,4.90
2017-07-26T19:17:15.026Z,4.90
2017-07-26T19:19:42.037Z,5.47
2017-07-26T19:22:08.991Z,5.53
2017-07-26T19:24:36.269Z,6.97
2017-07-26T19:27:03.289Z,6.07
2017-07-26T19:29:30.239Z,9.90
2017-07-26T19:31:57.209Z,7.40
2017-07-26T19:34:24.111Z,6.27
2017-07-26T19:36:51.005Z,6.50
2017-07-26T19:39:18.019Z,6.20
2017-07-26T19:41:44.966Z,6.67
2017-07-26T19:44:11.880Z,6.17
2017-07-26T19:46:38.788Z,5.83
2017-07-26T19:49:05.670Z,5.23
2017-07-26T19:51:32.769Z,6.20
2017-07-26T19:54:00.110Z,6.47
2017-07-26T19:56:27.463Z,5.50
2017-07-26T19:58:54.409Z,6.30
2017-07-26T20:01:21.350Z,6.53
2017-07-26T20:03:48.238Z,6.63
2017-07-26T20:06:15.318Z,6.50
2017-07-26T20:08:42.309Z,7.13
2017-07-26T20:11:09.584Z,7.43
2017-07-26T20:13:36.478Z,6.90
2017-07-26T20:16:03.417Z,8.17
2017-07-26T20:18:30.310Z,7.50
2017-07-26T20:20:57.650Z,6.90
2017-07-26T20:23:25.006Z,6.93
2017-07-26T20:25:52.290Z,7.07
2017-07-26T20:28:19.217Z,7.67
2017-07-26T20:30:46.566Z,8.17
2017-07-26T20:33:13.845Z,7.77
2017-07-26T20:35:40.841Z,7.20
2017-07-26T20:38:07.805Z,7.60
2017-07-26T20:40:35.157Z,8.03
2017-07-26T20:43:02.094Z,7.03
2017-07-26T20:45:29.029Z,7.50
2017-07-26T20:47:55.950Z,7.40
2017-07-26T20:50:22.863Z,8.40
2017-07-26T20:52:50.197Z,8.47
2017-07-26T20:55:17.146Z,7.67
2017-07-26T20:57:44.025Z,7.10
2017-07-26T21:00:10.965Z,7.90
2017-07-26T21:02:37.882Z,7.70
2017-07-26T21:05:04.778Z,7.47
2017-07-26T21:07:31.702Z,8.13
2017-07-26T21:09:58.587Z,8.07
2017-07-26T21:12:25.521Z,7.80
2017-07-26T21:14:52.421Z,7.83
2017-07-26T21:17:19.710Z,7.43
2017-07-26T21:19:46.638Z,7.47
2017-07-26T21:22:13.522Z,7.90
2017-07-26T21:24:40.526Z,8.20
2017-07-26T21:27:07.825Z,7.83
2017-07-26T21:29:34.807Z,8.70
2017-07-26T21:32:02.165Z,8.93
2017-07-26T21:34:29.110Z,7.53
2017-07-26T21:36:56.473Z,7.60
2017-07-26T21:39:23.769Z,8.00
2017-07-26T21:41:50.661Z,8.70
2017-07-26T21:44:18.064Z,8.80
2017-07-26T21:46:44.998Z,7.93
2017-07-26T21:49:11.877Z,7.30
2017-07-26T21:51:38.892Z,8.00
2017-07-26T21:54:05.777Z,8.43
2017-07-26T21:56:32.745Z,8.10
2017-07-26T21:58:59.702Z,8.53
2017-07-26T22:01:26.581Z,7.77
2017-07-26T22:03:53.486Z,8.30
2017-07-26T22:06:20.406Z,7.03
2017-07-26T22:08:47.377Z,7.20
2017-07-26T22:11:14.257Z,7.60
2017-07-26T22:13:41.271Z,7.10
2017-07-26T22:16:08.151Z,7.30
2017-07-26T22:18:35.167Z,7.57
2017-07-26T22:21:02.110Z,7.43
2017-07-26T22:23:29.053Z,8.17
2017-07-26T22:25:56.003Z,8.00
2017-07-26T22:28:22.907Z,7.50
2017-07-26T22:30:50.959Z,8.00
2017-07-26T22:33:17.878Z,7.47
2017-07-26T22:35:45.217Z,8.13
2017-07-26T22:38:12.165Z,8.27
2017-07-26T22:40:39.109Z,8.23
2017-07-26T22:43:05.997Z,7.43
2017-07-26T22:45:32.922Z,8.03
2017-07-26T22:48:00.202Z,7.83
2017-07-26T22:50:27.101Z,6.93
2017-07-26T22:52:54.071Z,7.90
2017-07-26T22:55:21.445Z,7.90
2017-07-26T22:57:48.337Z,7.40
2017-07-26T23:00:15.398Z,7.53
2017-07-26T23:02:42.290Z,6.80
2017-07-26T23:05:09.170Z,7.77
2017-07-26T23:07:36.237Z,7.63
2017-07-26T23:10:03.190Z,7.20
2017-07-26T23:12:30.081Z,7.57
2017-07-26T23:14:57.009Z,7.10
2017-07-26T23:17:23.889Z,7.40
2017-07-26T23:19:50.869Z,8.63
2017-07-26T23:22:17.777Z,7.70
2017-07-26T23:24:44.757Z,7.60
2017-07-26T23:27:11.673Z,8.80
2017-07-26T23:29:38.641Z,6.80
2017-07-26T23:32:05.593Z,7.70
2017-07-26T23:34:32.541Z,7.43
2017-07-26T23:36:59.494Z,7.43
2017-07-26T23:39:26.801Z,7.20
2017-07-26T23:41:53.714Z,6.83
2017-07-26T23:44:21.026Z,6.73
2017-07-26T23:46:48.509Z,6.50
2017-07-26T23:49:15.866Z,6.53
2017-07-26T23:51:43.217Z,6.37
2017-07-26T23:54:10.097Z,7.00
2017-07-26T23:56:37.003Z,6.87
2017-07-26T23:59:03.917Z,6.13
